sensor_id;sensor_type;location;lat;lon;timestamp;P1;durP1;ratioP1;P2;durP2;ratioP2
21634;SDS011;10979;48.306;9.830;2022-10-29T00:01:46;0.10;;;0.10;;
21634;SDS011;10979;48.306;9.830;2022-10-29T00:04:11;0.17;;;0.17;;
21634;SDS011;10979;48.306;9.830;2022-10-29T00:06:37;0.10;;;0.10;;
21634;SDS011;10979;48.306;9.830;2022-10-29T00:09:03;0.10;;;0.10;;
21634;SDS011;10979;48.306;9.830;2022-10-29T00:11:28;0.10;;;0.10;;
21634;SDS011;10979;48.306;9.830;2022-10-29T00:13:58;0.10;;;0.10;;
21634;SDS011;10979;48.306;9.830;2022-10-29T00:16:26;0.10;;;0.10;;
21634;SDS011;10979;48.306;9.830;2022-10-29T00:18:53;0.10;;;0.10;;
21634;SDS011;10979;48.306;9.830;2022-10-29T00:21:21;0.10;;;0.10;;
21634;SDS011;10979;48.306;9.830;2022-10-29T00:23:48;0.10;;;0.10;;
21634;SDS011;10979;48.306;9.830;2022-10-29T00:26:14;0.10;;;0.10;;
21634;SDS011;10979;48.306;9.830;2022-10-29T00:28:41;0.10;;;0.10;;
21634;SDS011;10979;48.306;9.830;2022-10-29T00:31:16;0.10;;;0.10;;
21634;SDS011;10979;48.306;9.830;2022-10-29T00:33:42;0.10;;;0.10;;
21634;SDS011;10979;48.306;9.830;2022-10-29T00:36:09;0.10;;;0.10;;
21634;SDS011;10979;48.306;9.830;2022-10-29T00:38:36;0.10;;;0.10;;
21634;SDS011;10979;48.306;9.830;2022-10-29T00:41:03;0.10;;;0.10;;
21634;SDS011;10979;48.306;9.830;2022-10-29T00:43:32;0.10;;;0.10;;
21634;SDS011;10979;48.306;9.830;2022-10-29T00:46:03;0.15;;;0.15;;
21634;SDS011;10979;48.306;9.830;2022-10-29T00:48:34;0.10;;;0.10;;
21634;SDS011;10979;48.306;9.830;2022-10-29T00:51:04;0.10;;;0.10;;
21634;SDS011;10979;48.306;9.830;2022-10-29T00:53:33;0.20;;;0.20;;
21634;SDS011;10979;48.306;9.830;2022-10-29T00:56:03;0.10;;;0.10;;
21634;SDS011;10979;48.306;9.830;2022-10-29T00:58:29;0.10;;;0.10;;
21634;SDS011;10979;48.306;9.830;2022-10-29T01:00:56;0.10;;;0.10;;
21634;SDS011;10979;48.306;9.830;2022-10-29T01:03:21;0.10;;;0.10;;
21634;SDS011;10979;48.306;9.830;2022-10-29T01:05:47;0.10;;;0.10;;
21634;SDS011;10979;48.306;9.830;2022-10-29T01:08:13;0.10;;;0.10;;
21634;SDS011;10979;48.306;9.830;2022-10-29T01:15:54;0.10;;;0.10;;
21634;SDS011;10979;48.306;9.830;2022-10-29T01:18:34;0.10;;;0.10;;
21634;SDS011;10979;48.306;9.830;2022-10-29T01:27:17;0.17;;;0.17;;
21634;SDS011;10979;48.306;9.830;2022-10-29T01:32:31;0.20;;;0.20;;
21634;SDS011;10979;48.306;9.830;2022-10-29T01:35:26;0.10;;;0.10;;
21634;SDS011;10979;48.306;9.830;2022-10-29T01:38:04;0.20;;;0.20;;
21634;SDS011;10979;48.306;9.830;2022-10-29T01:41:07;0.20;;;0.20;;
21634;SDS011;10979;48.306;9.830;2022-10-29T01:47:00;0.10;;;0.10;;
21634;SDS011;10979;48.306;9.830;2022-10-29T01:49:31;0.17;;;0.17;;
21634;SDS011;10979;48.306;9.830;2022-10-29T01:52:02;0.10;;;0.10;;
21634;SDS011;10979;48.306;9.830;2022-10-29T01:54:30;0.20;;;0.20;;
21634;SDS011;10979;48.306;9.830;2022-10-29T02:00:18;0.20;;;0.20;;
21634;SDS011;10979;48.306;9.830;2022-10-29T02:05:41;0.10;;;0.10;;
21634;SDS011;10979;48.306;9.830;2022-10-29T02:08:17;0.13;;;0.13;;
21634;SDS011;10979;48.306;9.830;2022-10-29T02:13:17;0.20;;;0.20;;
21634;SDS011;10979;48.306;9.830;2022-10-29T02:15:50;0.10;;;0.10;;
21634;SDS011;10979;48.306;9.830;2022-10-29T02:18:19;0.20;;;0.20;;
21634;SDS011;10979;48.306;9.830;2022-10-29T02:20:45;0.20;;;0.20;;
21634;SDS011;10979;48.306;9.830;2022-10-29T02:23:11;0.20;;;0.20;;
21634;SDS011;10979;48.306;9.830;2022-10-29T02:25:38;0.10;;;0.10;;
21634;SDS011;10979;48.306;9.830;2022-10-29T02:28:04;0.20;;;0.20;;
21634;SDS011;10979;48.306;9.830;2022-10-29T02:30:29;0.10;;;0.10;;
21634;SDS011;10979;48.306;9.830;2022-10-29T02:32:55;0.10;;;0.10;;
21634;SDS011;10979;48.306;9.830;2022-10-29T02:35:20;0.20;;;0.20;;
21634;SDS011;10979;48.306;9.830;2022-10-29T02:37:46;0.17;;;0.17;;
21634;SDS011;10979;48.306;9.830;2022-10-29T02:40:12;0.20;;;0.20;;
21634;SDS011;10979;48.306;9.830;2022-10-29T02:42:38;0.10;;;0.10;;
21634;SDS011;10979;48.306;9.830;2022-10-29T02:45:04;0.20;;;0.20;;
21634;SDS011;10979;48.306;9.830;2022-10-29T02:47:30;0.20;;;0.20;;
21634;SDS011;10979;48.306;9.830;2022-10-29T02:49:56;0.13;;;0.13;;
21634;SDS011;10979;48.306;9.830;2022-10-29T02:52:21;0.20;;;0.20;;
21634;SDS011;10979;48.306;9.830;2022-10-29T02:54:47;0.10;;;0.10;;
21634;SDS011;10979;48.306;9.830;2022-10-29T02:57:12;0.20;;;0.20;;
21634;SDS011;10979;48.306;9.830;2022-10-29T02:59:38;0.10;;;0.10;;
21634;SDS011;10979;48.306;9.830;2022-10-29T03:02:03;0.10;;;0.10;;
21634;SDS011;10979;48.306;9.830;2022-10-29T03:04:29;0.10;;;0.10;;
21634;SDS011;10979;48.306;9.830;2022-10-29T03:06:55;0.20;;;0.20;;
21634;SDS011;10979;48.306;9.830;2022-10-29T03:09:20;0.10;;;0.10;;
21634;SDS011;10979;48.306;9.830;2022-10-29T03:11:46;0.10;;;0.10;;
21634;SDS011;10979;48.306;9.830;2022-10-29T03:14:12;0.10;;;0.10;;
21634;SDS011;10979;48.306;9.830;2022-10-29T03:16:37;0.13;;;0.13;;
21634;SDS011;10979;48.306;9.830;2022-10-29T03:19:03;0.10;;;0.10;;
21634;SDS011;10979;48.306;9.830;2022-10-29T03:21:29;0.10;;;0.10;;
21634;SDS011;10979;48.306;9.830;2022-10-29T03:23:54;0.10;;;0.10;;
21634;SDS011;10979;48.306;9.830;2022-10-29T03:26:20;0.10;;;0.10;;
21634;SDS011;10979;48.306;9.830;2022-10-29T03:28:45;0.10;;;0.10;;
21634;SDS011;10979;48.306;9.830;2022-10-29T03:31:11;0.10;;;0.10;;
21634;SDS011;10979;48.306;9.830;2022-10-29T03:33:36;0.10;;;0.10;;
21634;SDS011;10979;48.306;9.830;2022-10-29T03:36:03;0.10;;;0.10;;
21634;SDS011;10979;48.306;9.830;2022-10-29T03:38:30;0.10;;;0.10;;
21634;SDS011;10979;48.306;9.830;2022-10-29T03:40:56;0.10;;;0.10;;
21634;SDS011;10979;48.306;9.830;2022-10-29T03:43:22;0.10;;;0.10;;
21634;SDS011;10979;48.306;9.830;2022-10-29T03:45:51;0.10;;;0.10;;
21634;SDS011;10979;48.306;9.830;2022-10-29T03:48:18;0.10;;;0.10;;
21634;SDS011;10979;48.306;9.830;2022-10-29T03:50:52;0.10;;;0.10;;
21634;SDS011;10979;48.306;9.830;2022-10-29T03:53:18;0.10;;;0.10;;
21634;SDS011;10979;48.306;9.830;2022-10-29T03:55:44;0.20;;;0.20;;
21634;SDS011;10979;48.306;9.830;2022-10-29T03:58:09;0.10;;;0.10;;
21634;SDS011;10979;48.306;9.830;2022-10-29T04:00:35;0.10;;;0.10;;
21634;SDS011;10979;48.306;9.830;2022-10-29T04:03:00;0.10;;;0.10;;
21634;SDS011;10979;48.306;9.830;2022-10-29T04:05:26;0.10;;;0.10;;
21634;SDS011;10979;48.306;9.830;2022-10-29T04:07:51;0.10;;;0.10;;
21634;SDS011;10979;48.306;9.830;2022-10-29T04:10:17;0.10;;;0.10;;
21634;SDS011;10979;48.306;9.830;2022-10-29T04:12:44;0.10;;;0.10;;
21634;SDS011;10979;48.306;9.830;2022-10-29T04:15:10;0.10;;;0.10;;
21634;SDS011;10979;48.306;9.830;2022-10-29T04:17:36;0.10;;;0.10;;
21634;SDS011;10979;48.306;9.830;2022-10-29T04:20:01;0.10;;;0.10;;
21634;SDS011;10979;48.306;9.830;2022-10-29T04:22:27;0.10;;;0.10;;
21634;SDS011;10979;48.306;9.830;2022-10-29T04:24:53;0.10;;;0.10;;
21634;SDS011;10979;48.306;9.830;2022-10-29T04:27:18;0.10;;;0.10;;
21634;SDS011;10979;48.306;9.830;2022-10-29T04:29:44;0.10;;;0.10;;
21634;SDS011;10979;48.306;9.830;2022-10-29T04:32:09;0.10;;;0.10;;
21634;SDS011;10979;48.306;9.830;2022-10-29T04:34:35;0.10;;;0.10;;
21634;SDS011;10979;48.306;9.830;2022-10-29T04:37:00;0.10;;;0.10;;
21634;SDS011;10979;48.306;9.830;2022-10-29T04:39:26;0.10;;;0.10;;
21634;SDS011;10979;48.306;9.830;2022-10-29T04:41:52;0.10;;;0.10;;
21634;SDS011;10979;48.306;9.830;2022-10-29T04:44:17;0.20;;;0.20;;
21634;SDS011;10979;48.306;9.830;2022-10-29T04:46:43;0.10;;;0.10;;
21634;SDS011;10979;48.306;9.830;2022-10-29T04:49:09;0.10;;;0.10;;
21634;SDS011;10979;48.306;9.830;2022-10-29T04:51:35;0.10;;;0.10;;
21634;SDS011;10979;48.306;9.830;2022-10-29T04:54:00;0.10;;;0.10;;
21634;SDS011;10979;48.306;9.830;2022-10-29T04:56:26;0.10;;;0.10;;
21634;SDS011;10979;48.306;9.830;2022-10-29T04:58:53;0.10;;;0.10;;
21634;SDS011;10979;48.306;9.830;2022-10-29T05:01:18;0.10;;;0.10;;
21634;SDS011;10979;48.306;9.830;2022-10-29T05:03:44;0.13;;;0.13;;
21634;SDS011;10979;48.306;9.830;2022-10-29T05:06:09;0.10;;;0.10;;
21634;SDS011;10979;48.306;9.830;2022-10-29T05:08:35;0.10;;;0.10;;
21634;SDS011;10979;48.306;9.830;2022-10-29T05:11:01;0.10;;;0.10;;
21634;SDS011;10979;48.306;9.830;2022-10-29T05:13:28;0.10;;;0.10;;
21634;SDS011;10979;48.306;9.830;2022-10-29T05:15:53;0.10;;;0.10;;
21634;SDS011;10979;48.306;9.830;2022-10-29T05:18:19;0.10;;;0.10;;
21634;SDS011;10979;48.306;9.830;2022-10-29T05:20:45;0.10;;;0.10;;
21634;SDS011;10979;48.306;9.830;2022-10-29T05:23:10;0.10;;;0.10;;
21634;SDS011;10979;48.306;9.830;2022-10-29T05:25:37;0.10;;;0.10;;
21634;SDS011;10979;48.306;9.830;2022-10-29T05:28:10;0.10;;;0.10;;
21634;SDS011;10979;48.306;9.830;2022-10-29T05:30:38;0.10;;;0.10;;
21634;SDS011;10979;48.306;9.830;2022-10-29T05:33:05;0.10;;;0.10;;
21634;SDS011;10979;48.306;9.830;2022-10-29T05:35:31;0.10;;;0.10;;
21634;SDS011;10979;48.306;9.830;2022-10-29T05:37:57;0.10;;;0.10;;
21634;SDS011;10979;48.306;9.830;2022-10-29T05:40:24;0.10;;;0.10;;
21634;SDS011;10979;48.306;9.830;2022-10-29T05:42:50;0.10;;;0.10;;
21634;SDS011;10979;48.306;9.830;2022-10-29T05:45:16;0.10;;;0.10;;
21634;SDS011;10979;48.306;9.830;2022-10-29T05:47:42;0.10;;;0.10;;
21634;SDS011;10979;48.306;9.830;2022-10-29T05:50:07;0.10;;;0.10;;
21634;SDS011;10979;48.306;9.830;2022-10-29T05:52:33;0.10;;;0.10;;
21634;SDS011;10979;48.306;9.830;2022-10-29T05:54:59;0.10;;;0.10;;
21634;SDS011;10979;48.306;9.830;2022-10-29T05:57:24;0.10;;;0.10;;
21634;SDS011;10979;48.306;9.830;2022-10-29T05:59:51;0.10;;;0.10;;
21634;SDS011;10979;48.306;9.830;2022-10-29T06:02:17;0.10;;;0.10;;
21634;SDS011;10979;48.306;9.830;2022-10-29T06:04:42;0.10;;;0.10;;
21634;SDS011;10979;48.306;9.830;2022-10-29T06:07:08;0.10;;;0.10;;
21634;SDS011;10979;48.306;9.830;2022-10-29T06:09:33;0.10;;;0.10;;
21634;SDS011;10979;48.306;9.830;2022-10-29T06:11:59;0.10;;;0.10;;
21634;SDS011;10979;48.306;9.830;2022-10-29T06:14:24;0.10;;;0.10;;
21634;SDS011;10979;48.306;9.830;2022-10-29T06:16:50;0.10;;;0.10;;
21634;SDS011;10979;48.306;9.830;2022-10-29T06:19:15;0.10;;;0.10;;
21634;SDS011;10979;48.306;9.830;2022-10-29T06:21:41;0.10;;;0.10;;
21634;SDS011;10979;48.306;9.830;2022-10-29T06:24:07;0.10;;;0.10;;
21634;SDS011;10979;48.306;9.830;2022-10-29T06:26:34;0.10;;;0.10;;
21634;SDS011;10979;48.306;9.830;2022-10-29T06:29:01;0.10;;;0.10;;
21634;SDS011;10979;48.306;9.830;2022-10-29T06:31:27;0.10;;;0.10;;
21634;SDS011;10979;48.306;9.830;2022-10-29T06:33:53;0.10;;;0.10;;
21634;SDS011;10979;48.306;9.830;2022-10-29T06:36:19;0.10;;;0.10;;
21634;SDS011;10979;48.306;9.830;2022-10-29T06:38:44;0.10;;;0.10;;
21634;SDS011;10979;48.306;9.830;2022-10-29T06:41:10;0.10;;;0.10;;
21634;SDS011;10979;48.306;9.830;2022-10-29T06:43:35;0.10;;;0.10;;
21634;SDS011;10979;48.306;9.830;2022-10-29T06:46:01;0.10;;;0.10;;
21634;SDS011;10979;48.306;9.830;2022-10-29T06:48:26;0.10;;;0.10;;
21634;SDS011;10979;48.306;9.830;2022-10-29T06:50:52;0.10;;;0.10;;
21634;SDS011;10979;48.306;9.830;2022-10-29T06:53:18;0.10;;;0.10;;
21634;SDS011;10979;48.306;9.830;2022-10-29T06:55:43;0.10;;;0.10;;
21634;SDS011;10979;48.306;9.830;2022-10-29T06:58:13;0.17;;;0.17;;
21634;SDS011;10979;48.306;9.830;2022-10-29T07:00:40;0.10;;;0.10;;
21634;SDS011;10979;48.306;9.830;2022-10-29T07:03:07;0.10;;;0.10;;
21634;SDS011;10979;48.306;9.830;2022-10-29T07:05:36;0.10;;;0.10;;
21634;SDS011;10979;48.306;9.830;2022-10-29T07:08:01;0.10;;;0.10;;
21634;SDS011;10979;48.306;9.830;2022-10-29T07:10:28;0.10;;;0.10;;
21634;SDS011;10979;48.306;9.830;2022-10-29T07:12:54;0.10;;;0.10;;
21634;SDS011;10979;48.306;9.830;2022-10-29T07:15:20;0.10;;;0.10;;
21634;SDS011;10979;48.306;9.830;2022-10-29T07:17:56;0.10;;;0.10;;
21634;SDS011;10979;48.306;9.830;2022-10-29T07:20:23;0.10;;;0.10;;
21634;SDS011;10979;48.306;9.830;2022-10-29T07:22:49;0.00;;;0.00;;
21634;SDS011;10979;48.306;9.830;2022-10-29T07:25:14;0.00;;;0.00;;
21634;SDS011;10979;48.306;9.830;2022-10-29T07:27:40;0.00;;;0.00;;
21634;SDS011;10979;48.306;9.830;2022-10-29T07:30:06;0.30;;;0.30;;
21634;SDS011;10979;48.306;9.830;2022-10-29T07:32:31;0.25;;;0.20;;
21634;SDS011;10979;48.306;9.830;2022-10-29T07:34:57;0.10;;;0.10;;
21634;SDS011;10979;48.306;9.830;2022-10-29T07:37:22;0.10;;;0.10;;
21634;SDS011;10979;48.306;9.830;2022-10-29T07:39:48;0.10;;;0.10;;
21634;SDS011;10979;48.306;9.830;2022-10-29T07:42:14;0.00;;;0.00;;
21634;SDS011;10979;48.306;9.830;2022-10-29T07:44:39;0.00;;;0.00;;
21634;SDS011;10979;48.306;9.830;2022-10-29T07:47:05;0.00;;;0.00;;
21634;SDS011;10979;48.306;9.830;2022-10-29T07:49:31;0.00;;;0.00;;
21634;SDS011;10979;48.306;9.830;2022-10-29T07:51:56;0.00;;;0.00;;
21634;SDS011;10979;48.306;9.830;2022-10-29T07:54:22;0.00;;;0.00;;
21634;SDS011;10979;48.306;9.830;2022-10-29T07:56:50;0.00;;;0.00;;
21634;SDS011;10979;48.306;9.830;2022-10-29T07:59:17;0.00;;;0.00;;
21634;SDS011;10979;48.306;9.830;2022-10-29T08:01:43;0.00;;;0.00;;
21634;SDS011;10979;48.306;9.830;2022-10-29T08:04:09;0.00;;;0.00;;
21634;SDS011;10979;48.306;9.830;2022-10-29T08:06:34;0.00;;;0.00;;
21634;SDS011;10979;48.306;9.830;2022-10-29T08:09:00;0.00;;;0.00;;
21634;SDS011;10979;48.306;9.830;2022-10-29T08:11:25;0.00;;;0.00;;
21634;SDS011;10979;48.306;9.830;2022-10-29T08:13:51;0.00;;;0.00;;
21634;SDS011;10979;48.306;9.830;2022-10-29T08:16:16;0.00;;;0.00;;
21634;SDS011;10979;48.306;9.830;2022-10-29T08:18:42;0.00;;;0.00;;
21634;SDS011;10979;48.306;9.830;2022-10-29T08:21:07;0.00;;;0.00;;
21634;SDS011;10979;48.306;9.830;2022-10-29T08:23:33;0.00;;;0.00;;
21634;SDS011;10979;48.306;9.830;2022-10-29T08:25:59;0.00;;;0.00;;
21634;SDS011;10979;48.306;9.830;2022-10-29T08:28:24;0.00;;;0.00;;
21634;SDS011;10979;48.306;9.830;2022-10-29T08:30:50;0.00;;;0.00;;
21634;SDS011;10979;48.306;9.830;2022-10-29T08:33:16;0.00;;;0.00;;
21634;SDS011;10979;48.306;9.830;2022-10-29T08:35:42;0.00;;;0.00;;
21634;SDS011;10979;48.306;9.830;2022-10-29T08:38:07;0.00;;;0.00;;
21634;SDS011;10979;48.306;9.830;2022-10-29T08:45:52;0.00;;;0.00;;
21634;SDS011;10979;48.306;9.830;2022-10-29T08:48:24;0.00;;;0.00;;
21634;SDS011;10979;48.306;9.830;2022-10-29T08:51:14;0.00;;;0.00;;
21634;SDS011;10979;48.306;9.830;2022-10-29T08:53:43;0.00;;;0.00;;
21634;SDS011;10979;48.306;9.830;2022-10-29T08:56:32;0.00;;;0.00;;
21634;SDS011;10979;48.306;9.830;2022-10-29T08:59:15;0.00;;;0.00;;
21634;SDS011;10979;48.306;9.830;2022-10-29T09:01:45;0.00;;;0.00;;
21634;SDS011;10979;48.306;9.830;2022-10-29T09:06:59;0.00;;;0.00;;
21634;SDS011;10979;48.306;9.830;2022-10-29T09:20:53;0.00;;;0.00;;
21634;SDS011;10979;48.306;9.830;2022-10-29T09:23:42;0.00;;;0.00;;
21634;SDS011;10979;48.306;9.830;2022-10-29T09:26:16;0.00;;;0.00;;
21634;SDS011;10979;48.306;9.830;2022-10-29T09:31:48;0.00;;;0.00;;
21634;SDS011;10979;48.306;9.830;2022-10-29T09:34:24;0.00;;;0.00;;
21634;SDS011;10979;48.306;9.830;2022-10-29T09:36:55;0.00;;;0.00;;
21634;SDS011;10979;48.306;9.830;2022-10-29T09:39:27;0.00;;;0.00;;
21634;SDS011;10979;48.306;9.830;2022-10-29T09:41:56;0.00;;;0.00;;
21634;SDS011;10979;48.306;9.830;2022-10-29T09:44:29;0.00;;;0.00;;
21634;SDS011;10979;48.306;9.830;2022-10-29T09:49:55;0.00;;;0.00;;
21634;SDS011;10979;48.306;9.830;2022-10-29T09:52:44;0.00;;;0.00;;
21634;SDS011;10979;48.306;9.830;2022-10-29T09:55:54;0.00;;;0.00;;
21634;SDS011;10979;48.306;9.830;2022-10-29T09:58:03;0.00;;;0.00;;
21634;SDS011;10979;48.306;9.830;2022-10-29T10:00:30;0.00;;;0.00;;
21634;SDS011;10979;48.306;9.830;2022-10-29T10:03:20;0.00;;;0.00;;
21634;SDS011;10979;48.306;9.830;2022-10-29T10:08:25;0.00;;;0.00;;
21634;SDS011;10979;48.306;9.830;2022-10-29T10:13:25;0.00;;;0.00;;
21634;SDS011;10979;48.306;9.830;2022-10-29T10:15:52;0.00;;;0.00;;
21634;SDS011;10979;48.306;9.830;2022-10-29T10:20:58;0.00;;;0.00;;
21634;SDS011;10979;48.306;9.830;2022-10-29T10:23:39;0.00;;;0.00;;
21634;SDS011;10979;48.306;9.830;2022-10-29T10:31:38;0.00;;;0.00;;
21634;SDS011;10979;48.306;9.830;2022-10-29T10:34:08;0.00;;;0.00;;
21634;SDS011;10979;48.306;9.830;2022-10-29T10:39:35;0.00;;;0.00;;
21634;SDS011;10979;48.306;9.830;2022-10-29T10:42:49;0.00;;;0.00;;
21634;SDS011;10979;48.306;9.830;2022-10-29T10:45:05;0.00;;;0.00;;
21634;SDS011;10979;48.306;9.830;2022-10-29T10:47:43;0.00;;;0.00;;
21634;SDS011;10979;48.306;9.830;2022-10-29T10:50:17;0.00;;;0.00;;
21634;SDS011;10979;48.306;9.830;2022-10-29T10:52:52;0.00;;;0.00;;
21634;SDS011;10979;48.306;9.830;2022-10-29T10:55:20;0.00;;;0.00;;
21634;SDS011;10979;48.306;9.830;2022-10-29T10:58:04;0.00;;;0.00;;
21634;SDS011;10979;48.306;9.830;2022-10-29T11:00:55;0.00;;;0.00;;
21634;SDS011;10979;48.306;9.830;2022-10-29T11:03:49;0.00;;;0.00;;
21634;SDS011;10979;48.306;9.830;2022-10-29T11:06:27;0.00;;;0.00;;
21634;SDS011;10979;48.306;9.830;2022-10-29T11:09:06;0.00;;;0.00;;
21634;SDS011;10979;48.306;9.830;2022-10-29T11:11:46;0.00;;;0.00;;
21634;SDS011;10979;48.306;9.830;2022-10-29T11:14:24;0.00;;;0.00;;
21634;SDS011;10979;48.306;9.830;2022-10-29T11:16:56;0.00;;;0.00;;
21634;SDS011;10979;48.306;9.830;2022-10-29T11:19:38;0.00;;;0.00;;
21634;SDS011;10979;48.306;9.830;2022-10-29T11:22:15;0.00;;;0.00;;
21634;SDS011;10979;48.306;9.830;2022-10-29T11:30:19;0.00;;;0.00;;
21634;SDS011;10979;48.306;9.830;2022-10-29T11:40:58;0.00;;;0.00;;
21634;SDS011;10979;48.306;9.830;2022-10-29T11:43:29;0.00;;;0.00;;
21634;SDS011;10979;48.306;9.830;2022-10-29T11:48:32;0.00;;;0.00;;
21634;SDS011;10979;48.306;9.830;2022-10-29T12:15:00;0.00;;;0.00;;
21634;SDS011;10979;48.306;9.830;2022-10-29T12:18:11;0.00;;;0.00;;
21634;SDS011;10979;48.306;9.830;2022-10-29T12:23:48;0.00;;;0.00;;
21634;SDS011;10979;48.306;9.830;2022-10-29T12:26:47;0.00;;;0.00;;
21634;SDS011;10979;48.306;9.830;2022-10-29T12:29:44;0.00;;;0.00;;
21634;SDS011;10979;48.306;9.830;2022-10-29T12:40:29;0.00;;;0.00;;
21634;SDS011;10979;48.306;9.830;2022-10-29T12:42:59;0.00;;;0.00;;
21634;SDS011;10979;48.306;9.830;2022-10-29T12:55:43;0.00;;;0.00;;
21634;SDS011;10979;48.306;9.830;2022-10-29T13:11:53;0.00;;;0.00;;
21634;SDS011;10979;48.306;9.830;2022-10-29T13:16:58;0.00;;;0.00;;
21634;SDS011;10979;48.306;9.830;2022-10-29T13:22:06;0.00;;;0.00;;
21634;SDS011;10979;48.306;9.830;2022-10-29T13:30:31;0.00;;;0.00;;
21634;SDS011;10979;48.306;9.830;2022-10-29T13:32:57;0.00;;;0.00;;
21634;SDS011;10979;48.306;9.830;2022-10-29T13:37:52;0.00;;;0.00;;
21634;SDS011;10979;48.306;9.830;2022-10-29T13:43:39;0.00;;;0.00;;
21634;SDS011;10979;48.306;9.830;2022-10-29T13:46:25;0.00;;;0.00;;
21634;SDS011;10979;48.306;9.830;2022-10-29T13:48:58;0.00;;;0.00;;
21634;SDS011;10979;48.306;9.830;2022-10-29T13:51:29;0.00;;;0.00;;
21634;SDS011;10979;48.306;9.830;2022-10-29T13:54:03;0.00;;;0.00;;
21634;SDS011;10979;48.306;9.830;2022-10-29T13:56:49;0.00;;;0.00;;
21634;SDS011;10979;48.306;9.830;2022-10-29T14:07:59;0.00;;;0.00;;
21634;SDS011;10979;48.306;9.830;2022-10-29T14:18:30;0.00;;;0.00;;
21634;SDS011;10979;48.306;9.830;2022-10-29T14:21:28;0.00;;;0.00;;
21634;SDS011;10979;48.306;9.830;2022-10-29T14:24:01;0.00;;;0.00;;
21634;SDS011;10979;48.306;9.830;2022-10-29T14:26:28;0.00;;;0.00;;
21634;SDS011;10979;48.306;9.830;2022-10-29T14:28:54;0.00;;;0.00;;
21634;SDS011;10979;48.306;9.830;2022-10-29T14:33:51;0.00;;;0.00;;
21634;SDS011;10979;48.306;9.830;2022-10-29T14:36:36;0.00;;;0.00;;
21634;SDS011;10979;48.306;9.830;2022-10-29T14:39:40;0.00;;;0.00;;
21634;SDS011;10979;48.306;9.830;2022-10-29T14:42:02;0.00;;;0.00;;
21634;SDS011;10979;48.306;9.830;2022-10-29T14:44:31;0.00;;;0.00;;
21634;SDS011;10979;48.306;9.830;2022-10-29T14:49:33;0.00;;;0.00;;
21634;SDS011;10979;48.306;9.830;2022-10-29T14:52:03;0.00;;;0.00;;
21634;SDS011;10979;48.306;9.830;2022-10-29T14:54:35;0.00;;;0.00;;
21634;SDS011;10979;48.306;9.830;2022-10-29T14:57:11;0.00;;;0.00;;
21634;SDS011;10979;48.306;9.830;2022-10-29T14:59:43;0.00;;;0.00;;
21634;SDS011;10979;48.306;9.830;2022-10-29T15:02:13;0.00;;;0.00;;
21634;SDS011;10979;48.306;9.830;2022-10-29T15:04:45;0.00;;;0.00;;
21634;SDS011;10979;48.306;9.830;2022-10-29T15:09:46;0.00;;;0.00;;
21634;SDS011;10979;48.306;9.830;2022-10-29T15:12:20;0.00;;;0.00;;
21634;SDS011;10979;48.306;9.830;2022-10-29T15:14:56;0.00;;;0.00;;
21634;SDS011;10979;48.306;9.830;2022-10-29T15:17:36;0.00;;;0.00;;
21634;SDS011;10979;48.306;9.830;2022-10-29T15:20:19;0.00;;;0.00;;
21634;SDS011;10979;48.306;9.830;2022-10-29T15:22:56;0.00;;;0.00;;
21634;SDS011;10979;48.306;9.830;2022-10-29T15:25:28;0.00;;;0.00;;
21634;SDS011;10979;48.306;9.830;2022-10-29T15:27:59;0.00;;;0.00;;
21634;SDS011;10979;48.306;9.830;2022-10-29T15:30:33;0.00;;;0.00;;
21634;SDS011;10979;48.306;9.830;2022-10-29T15:33:00;0.00;;;0.00;;
21634;SDS011;10979;48.306;9.830;2022-10-29T15:35:32;0.00;;;0.00;;
21634;SDS011;10979;48.306;9.830;2022-10-29T15:37:58;0.00;;;0.00;;
21634;SDS011;10979;48.306;9.830;2022-10-29T15:40:24;0.00;;;0.00;;
21634;SDS011;10979;48.306;9.830;2022-10-29T15:42:50;0.00;;;0.00;;
21634;SDS011;10979;48.306;9.830;2022-10-29T15:45:18;0.00;;;0.00;;
21634;SDS011;10979;48.306;9.830;2022-10-29T15:50:16;0.00;;;0.00;;
21634;SDS011;10979;48.306;9.830;2022-10-29T15:52:43;0.00;;;0.00;;
21634;SDS011;10979;48.306;9.830;2022-10-29T15:57:49;0.00;;;0.00;;
21634;SDS011;10979;48.306;9.830;2022-10-29T16:00:16;0.00;;;0.00;;
21634;SDS011;10979;48.306;9.830;2022-10-29T16:02:44;0.00;;;0.00;;
21634;SDS011;10979;48.306;9.830;2022-10-29T16:05:13;0.00;;;0.00;;
21634;SDS011;10979;48.306;9.830;2022-10-29T16:07:39;0.00;;;0.00;;
21634;SDS011;10979;48.306;9.830;2022-10-29T16:10:08;0.00;;;0.00;;
21634;SDS011;10979;48.306;9.830;2022-10-29T16:12:41;0.00;;;0.00;;
21634;SDS011;10979;48.306;9.830;2022-10-29T16:15:14;0.00;;;0.00;;
21634;SDS011;10979;48.306;9.830;2022-10-29T16:17:42;0.00;;;0.00;;
21634;SDS011;10979;48.306;9.830;2022-10-29T16:20:11;0.10;;;0.00;;
21634;SDS011;10979;48.306;9.830;2022-10-29T16:22:41;0.00;;;0.00;;
21634;SDS011;10979;48.306;9.830;2022-10-29T16:25:18;0.00;;;0.00;;
21634;SDS011;10979;48.306;9.830;2022-10-29T16:27:46;0.00;;;0.00;;
21634;SDS011;10979;48.306;9.830;2022-10-29T16:30:12;0.00;;;0.00;;
21634;SDS011;10979;48.306;9.830;2022-10-29T16:32:37;0.00;;;0.00;;
21634;SDS011;10979;48.306;9.830;2022-10-29T16:35:07;0.00;;;0.00;;
21634;SDS011;10979;48.306;9.830;2022-10-29T16:37:38;0.00;;;0.00;;
21634;SDS011;10979;48.306;9.830;2022-10-29T16:40:03;0.00;;;0.00;;
21634;SDS011;10979;48.306;9.830;2022-10-29T16:42:30;0.00;;;0.00;;
21634;SDS011;10979;48.306;9.830;2022-10-29T16:44:58;0.00;;;0.00;;
21634;SDS011;10979;48.306;9.830;2022-10-29T16:47:24;0.00;;;0.00;;
21634;SDS011;10979;48.306;9.830;2022-10-29T16:49:49;0.00;;;0.00;;
21634;SDS011;10979;48.306;9.830;2022-10-29T16:52:15;0.00;;;0.00;;
21634;SDS011;10979;48.306;9.830;2022-10-29T16:54:41;0.00;;;0.00;;
21634;SDS011;10979;48.306;9.830;2022-10-29T16:57:06;0.00;;;0.00;;
21634;SDS011;10979;48.306;9.830;2022-10-29T16:59:32;0.00;;;0.00;;
21634;SDS011;10979;48.306;9.830;2022-10-29T17:01:58;0.03;;;0.00;;
21634;SDS011;10979;48.306;9.830;2022-10-29T17:04:24;0.00;;;0.00;;
21634;SDS011;10979;48.306;9.830;2022-10-29T17:06:50;0.00;;;0.00;;
21634;SDS011;10979;48.306;9.830;2022-10-29T17:09:16;0.00;;;0.00;;
21634;SDS011;10979;48.306;9.830;2022-10-29T17:11:41;0.00;;;0.00;;
21634;SDS011;10979;48.306;9.830;2022-10-29T17:14:07;0.00;;;0.00;;
21634;SDS011;10979;48.306;9.830;2022-10-29T17:16:32;0.00;;;0.00;;
21634;SDS011;10979;48.306;9.830;2022-10-29T17:18:58;0.00;;;0.00;;
21634;SDS011;10979;48.306;9.830;2022-10-29T17:21:23;0.00;;;0.00;;
21634;SDS011;10979;48.306;9.830;2022-10-29T17:23:49;0.00;;;0.00;;
21634;SDS011;10979;48.306;9.830;2022-10-29T17:26:15;0.00;;;0.00;;
21634;SDS011;10979;48.306;9.830;2022-10-29T17:28:40;0.00;;;0.00;;
21634;SDS011;10979;48.306;9.830;2022-10-29T17:31:07;0.00;;;0.00;;
21634;SDS011;10979;48.306;9.830;2022-10-29T17:33:33;0.00;;;0.00;;
21634;SDS011;10979;48.306;9.830;2022-10-29T17:36:00;0.00;;;0.00;;
21634;SDS011;10979;48.306;9.830;2022-10-29T17:38:26;0.00;;;0.00;;
21634;SDS011;10979;48.306;9.830;2022-10-29T17:40:52;0.00;;;0.00;;
21634;SDS011;10979;48.306;9.830;2022-10-29T17:43:17;0.00;;;0.00;;
21634;SDS011;10979;48.306;9.830;2022-10-29T17:45:43;0.00;;;0.00;;
21634;SDS011;10979;48.306;9.830;2022-10-29T17:48:08;0.00;;;0.00;;
21634;SDS011;10979;48.306;9.830;2022-10-29T17:50:34;0.00;;;0.00;;
21634;SDS011;10979;48.306;9.830;2022-10-29T17:53:00;0.00;;;0.00;;
21634;SDS011;10979;48.306;9.830;2022-10-29T17:55:25;0.00;;;0.00;;
21634;SDS011;10979;48.306;9.830;2022-10-29T17:57:51;0.00;;;0.00;;
21634;SDS011;10979;48.306;9.830;2022-10-29T18:00:16;0.00;;;0.00;;
21634;SDS011;10979;48.306;9.830;2022-10-29T18:02:42;0.00;;;0.00;;
21634;SDS011;10979;48.306;9.830;2022-10-29T18:05:08;0.00;;;0.00;;
21634;SDS011;10979;48.306;9.830;2022-10-29T18:07:33;0.00;;;0.00;;
21634;SDS011;10979;48.306;9.830;2022-10-29T18:09:59;0.00;;;0.00;;